Observation data for White River Lake on 02/14/2020      Previous  Date  Next       Current Mesonet Observations  Soil Data  Daily Summary Page  Observations in Plain Language
KWVS 140600Z 07006KT M04/M06 A3031 RMK A01 T10361062  RH  082%=      5-min Rain = 0
KWVS 140605Z 07006KT M04/M06 A3031 RMK A01 T10371062  RH  083%=      5-min Rain = 0
KWVS 140610Z 07007KT M04/M06 A3031 RMK A01 T10381062  RH  084%=      5-min Rain = 0
KWVS 140615Z 07007KT M04/M06 A3031 RMK A01 T10391062  RH  084%=      5-min Rain = 0
KWVS 140620Z 07007KT M04/M06 A3031 RMK A01 T10401062  RH  085%=      5-min Rain = 0
KWVS 140625Z 07007KT M04/M06 A3031 RMK A01 T10401062  RH  085%=      5-min Rain = 0
KWVS 140630Z 07008KT M04/M06 A3031 RMK A01 T10401062  RH  085%=      5-min Rain = 0
KWVS 140635Z 07007KT M04/M06 A3031 RMK A01 T10411063  RH  085%=      5-min Rain = 0
KWVS 140640Z 07007KT M04/M06 A3031 RMK A01 T10421063  RH  085%=      5-min Rain = 0
KWVS 140645Z 07006KT M04/M06 A3031 RMK A01 T10441064  RH  086%=      5-min Rain = 0
KWVS 140650Z 07006KT M04/M06 A3031 RMK A01 T10441064  RH  086%=      5-min Rain = 0
KWVS 140655Z 08007KT M05/M07 A3031 RMK A01 T10451065  RH  086%=      5-min Rain = 0
KWVS 140700Z 08007KT M05/M07 A3031 RMK A01 T10451065  RH  086%=      5-min Rain = 0
KWVS 140705Z 08007KT M05/M07 A3031 RMK A01 T10451066  RH  085%=      5-min Rain = 0
KWVS 140710Z 08008KT M05/M07 A3032 RMK A01 T10451068  RH  084%=      5-min Rain = 0
KWVS 140715Z 08008KT M05/M07 A3032 RMK A01 T10451070  RH  083%=      5-min Rain = 0
KWVS 140720Z 09007KT M05/M07 A3032 RMK A01 T10461071  RH  083%=      5-min Rain = 0
KWVS 140725Z 08007KT M05/M07 A3032 RMK A01 T10471072  RH  083%=      5-min Rain = 0
KWVS 140730Z 09006KT M05/M07 A3032 RMK A01 T10471072  RH  083%=      5-min Rain = 0
KWVS 140735Z 08006KT M05/M07 A3032 RMK A01 T10481072  RH  083%=      5-min Rain = 0
KWVS 140740Z 07005KT M05/M07 A3032 RMK A01 T10491072  RH  084%=      5-min Rain = 0
KWVS 140745Z 07005KT M05/M07 A3032 RMK A01 T10501073  RH  085%=      5-min Rain = 0
KWVS 140750Z 07004KT M05/M07 A3032 RMK A01 T10511072  RH  085%=      5-min Rain = 0
KWVS 140755Z 07004KT M05/M07 A3032 RMK A01 T10511072  RH  086%=      5-min Rain = 0
KWVS 140800Z 06004KT M05/M07 A3032 RMK A01 T10521072  RH  086%=      5-min Rain = 0
KWVS 140805Z 07005KT M05/M07 A3032 RMK A01 T10531072  RH  086%=      5-min Rain = 0
KWVS 140810Z 06004KT M05/M07 A3032 RMK A01 T10531072  RH  086%=      5-min Rain = 0
KWVS 140815Z 06004KT M05/M07 A3032 RMK A01 T10541073  RH  086%=      5-min Rain = 0
KWVS 140820Z 06004KT M05/M07 A3032 RMK A01 T10541074  RH  086%=      5-min Rain = 0
KWVS 140825Z 07005KT M05/M08 A3032 RMK A01 T10541075  RH  086%=      5-min Rain = 0
KWVS 140830Z 06005KT M06/M08 A3032 RMK A01 T10551075  RH  085%=      5-min Rain = 0
KWVS 140835Z 07005KT M06/M08 A3032 RMK A01 T10551076  RH  085%=      5-min Rain = 0
KWVS 140840Z 06005KT M06/M08 A3032 RMK A01 T10551077  RH  085%=      5-min Rain = 0
KWVS 140845Z 07005KT M06/M08 A3032 RMK A01 T10561078  RH  085%=      5-min Rain = 0
KWVS 140850Z 07006KT M06/M08 A3032 RMK A01 T10561078  RH  084%=      5-min Rain = 0
KWVS 140855Z 07006KT M06/M08 A3032 RMK A01 T10561079  RH  084%=      5-min Rain = 0
KWVS 140900Z 07006KT M06/M08 A3032 RMK A01 T10571080  RH  084%=      5-min Rain = 0
KWVS 140905Z 06005KT M06/M08 A3032 RMK A01 T10571080  RH  084%=      5-min Rain = 0
KWVS 140910Z 07005KT M06/M08 A3032 RMK A01 T10581080  RH  084%=      5-min Rain = 0
KWVS 140915Z 07005KT M06/M08 A3032 RMK A01 T10581081  RH  084%=      5-min Rain = 0
KWVS 140920Z 07005KT M06/M08 A3032 RMK A01 T10591081  RH  084%=      5-min Rain = 0
KWVS 140925Z 06005KT M06/M08 A3032 RMK A01 T10591082  RH  084%=      5-min Rain = 0
KWVS 140930Z 06005KT M06/M08 A3032 RMK A01 T10591082  RH  084%=      5-min Rain = 0
KWVS 140935Z 06005KT M06/M08 A3032 RMK A01 T10601083  RH  084%=      5-min Rain = 0
KWVS 140940Z 06006KT M06/M08 A3032 RMK A01 T10601083  RH  084%=      5-min Rain = 0
KWVS 140945Z 06005KT M06/M08 A3032 RMK A01 T10601084  RH  083%=      5-min Rain = 0
KWVS 140950Z 05005KT M06/M09 A3032 RMK A01 T10601085  RH  083%=      5-min Rain = 0
KWVS 140955Z 06004KT M06/M09 A3032 RMK A01 T10621085  RH  083%=      5-min Rain = 0
KWVS 141000Z 06004KT M06/M09 A3032 RMK A01 T10621085  RH  084%=      5-min Rain = 0
KWVS 141005Z 06005KT M06/M09 A3032 RMK A01 T10621085  RH  083%=      5-min Rain = 0
KWVS 141010Z 06005KT M06/M09 A3032 RMK A01 T10621086  RH  083%=      5-min Rain = 0
KWVS 141015Z 06005KT M06/M09 A3032 RMK A01 T10621087  RH  083%=      5-min Rain = 0
KWVS 141020Z 06005KT M06/M09 A3033 RMK A01 T10621087  RH  082%=      5-min Rain = 0
KWVS 141025Z 06006KT M06/M09 A3033 RMK A01 T10621087  RH  082%=      5-min Rain = 0
KWVS 141030Z 06006KT M06/M09 A3033 RMK A01 T10621088  RH  082%=      5-min Rain = 0
KWVS 141035Z 06005KT M06/M09 A3032 RMK A01 T10621088  RH  082%=      5-min Rain = 0
KWVS 141040Z 06005KT M06/M09 A3033 RMK A01 T10621088  RH  081%=      5-min Rain = 0
KWVS 141045Z 07005KT M06/M09 A3033 RMK A01 T10631089  RH  081%=      5-min Rain = 0
KWVS 141050Z 06005KT M06/M09 A3033 RMK A01 T10631089  RH  081%=      5-min Rain = 0
KWVS 141055Z 06005KT M06/M09 A3033 RMK A01 T10631089  RH  081%=      5-min Rain = 0
KWVS 141100Z 05005KT M06/M09 A3033 RMK A01 T10631089  RH  082%=      5-min Rain = 0
KWVS 141105Z 05005KT M06/M09 A3033 RMK A01 T10641089  RH  082%=      5-min Rain = 0
KWVS 141110Z 05005KT M06/M09 A3033 RMK A01 T10631089  RH  082%=      5-min Rain = 0
KWVS 141115Z 05005KT M06/M09 A3033 RMK A01 T10621087  RH  082%=      5-min Rain = 0
KWVS 141120Z 05005KT M06/M09 A3033 RMK A01 T10611086  RH  082%=      5-min Rain = 0
KWVS 141125Z 05005KT M06/M09 A3033 RMK A01 T10601087  RH  081%=      5-min Rain = 0
KWVS 141130Z 06004KT M06/M09 A3033 RMK A01 T10611089  RH  081%=      5-min Rain = 0
KWVS 141135Z 06005KT M06/M09 A3033 RMK A01 T10621090  RH  081%=      5-min Rain = 0
KWVS 141140Z 06005KT M06/M09 A3033 RMK A01 T10621090  RH  081%=      5-min Rain = 0
KWVS 141145Z 06005KT M06/M09 A3033 RMK A01 T10631091  RH  081%=      5-min Rain = 0
KWVS 141150Z 06005KT M06/M09 A3033 RMK A01 T10641090  RH  081%=      5-min Rain = 0
KWVS 141155Z 06004KT M06/M09 A3032 RMK A01 T10631090  RH  081%=      5-min Rain = 0
KWVS 141200Z 06005KT M06/M09 A3033 RMK A01 T10631089  RH  082%=      5-min Rain = 0
KWVS 141205Z 06005KT M06/M09 A3032 RMK A01 T10611088  RH  081%=      5-min Rain = 0
KWVS 141210Z 06005KT M06/M09 A3033 RMK A01 T10611088  RH  081%=      5-min Rain = 0
KWVS 141215Z 05004KT M06/M09 A3032 RMK A01 T10611088  RH  081%=      5-min Rain = 0
KWVS 141220Z 05004KT M06/M09 A3033 RMK A01 T10611087  RH  082%=      5-min Rain = 0
KWVS 141225Z 04004KT M06/M09 A3033 RMK A01 T10611086  RH  082%=      5-min Rain = 0
KWVS 141230Z 05004KT M06/M09 A3033 RMK A01 T10611086  RH  082%=      5-min Rain = 0
KWVS 141235Z 06004KT M06/M09 A3033 RMK A01 T10601087  RH  081%=      5-min Rain = 0
KWVS 141240Z 07004KT M06/M09 A3033 RMK A01 T10601089  RH  080%=      5-min Rain = 0
KWVS 141245Z 07004KT M06/M09 A3033 RMK A01 T10611089  RH  080%=      5-min Rain = 0
KWVS 141250Z 07004KT M06/M09 A3033 RMK A01 T10621090  RH  080%=      5-min Rain = 0
KWVS 141255Z 06003KT M06/M09 A3033 RMK A01 T10621090  RH  081%=      5-min Rain = 0
KWVS 141300Z 07004KT M06/M09 A3034 RMK A01 T10631090  RH  081%=      5-min Rain = 0
KWVS 141305Z 08004KT M06/M09 A3034 RMK A01 T10641090  RH  081%=      5-min Rain = 0
KWVS 141310Z 08004KT M06/M09 A3034 RMK A01 T10631088  RH  082%=      5-min Rain = 0
KWVS 141315Z 09002KT M06/M09 A3034 RMK A01 T10611086  RH  082%=      5-min Rain = 0
KWVS 141320Z 10003KT M06/M08 A3034 RMK A01 T10601084  RH  083%=      5-min Rain = 0
KWVS 141325Z 10003KT M06/M09 A3034 RMK A01 T10591085  RH  082%=      5-min Rain = 0
KWVS 141330Z 10004KT M06/M09 A3034 RMK A01 T10581086  RH  081%=      5-min Rain = 0
KWVS 141335Z 10004KT M06/M09 A3034 RMK A01 T10571087  RH  080%=      5-min Rain = 0
KWVS 141340Z 10005KT M06/M09 A3034 RMK A01 T10571089  RH  078%=      5-min Rain = 0
KWVS 141345Z 11004KT M06/M09 A3034 RMK A01 T10571089  RH  078%=      5-min Rain = 0
KWVS 141350Z 10005KT M06/M09 A3034 RMK A01 T10561088  RH  078%=      5-min Rain = 0
KWVS 141355Z 09005KT M06/M09 A3034 RMK A01 T10561088  RH  078%=      5-min Rain = 0
KWVS 141400Z 09006KT M06/M09 A3034 RMK A01 T10561088  RH  078%=      5-min Rain = 0
KWVS 141405Z 10005KT M06/M09 A3035 RMK A01 T10551087  RH  078%=      5-min Rain = 0
KWVS 141410Z 10005KT M06/M09 A3035 RMK A01 T10551086  RH  078%=      5-min Rain = 0
KWVS 141415Z 10005KT M05/M09 A3035 RMK A01 T10541086  RH  078%=      5-min Rain = 0
KWVS 141420Z 10005KT M05/M09 A3035 RMK A01 T10531085  RH  078%=      5-min Rain = 0
KWVS 141425Z 10004KT M05/M09 A3035 RMK A01 T10531085  RH  078%=      5-min Rain = 0
KWVS 141430Z 10005KT M05/M08 A3035 RMK A01 T10521084  RH  078%=      5-min Rain = 0
KWVS 141435Z 11005KT M05/M08 A3035 RMK A01 T10521084  RH  078%=      5-min Rain = 0
KWVS 141440Z 11005KT M05/M08 A3035 RMK A01 T10511083  RH  078%=      5-min Rain = 0
KWVS 141445Z 10006KT M05/M08 A3035 RMK A01 T10501083  RH  078%=      5-min Rain = 0
KWVS 141450Z 11006KT M05/M08 A3035 RMK A01 T10501082  RH  078%=      5-min Rain = 0
KWVS 141455Z 11005KT M05/M08 A3036 RMK A01 T10491081  RH  078%=      5-min Rain = 0
KWVS 141500Z 12005KT M05/M08 A3036 RMK A01 T10471078  RH  079%=      5-min Rain = 0
KWVS 141505Z 12005KT M05/M08 A3036 RMK A01 T10461078  RH  078%=      5-min Rain = 0
KWVS 141510Z 13005KT M05/M08 A3036 RMK A01 T10461078  RH  078%=      5-min Rain = 0
KWVS 141515Z 12006KT M05/M08 A3036 RMK A01 T10451077  RH  078%=      5-min Rain = 0
KWVS 141520Z 12005KT M05/M08 A3036 RMK A01 T10451078  RH  078%=      5-min Rain = 0
KWVS 141525Z 12006KT M04/M08 A3036 RMK A01 T10441077  RH  078%=      5-min Rain = 0
KWVS 141530Z 12005KT M04/M08 A3036 RMK A01 T10441076  RH  078%=      5-min Rain = 0
KWVS 141535Z 12005KT M04/M07 A3037 RMK A01 T10421074  RH  078%=      5-min Rain = 0
KWVS 141540Z 14005KT M04/M07 A3036 RMK A01 T10411073  RH  079%=      5-min Rain = 0
KWVS 141545Z 13005KT M04/M07 A3036 RMK A01 T10411072  RH  079%=      5-min Rain = 0
KWVS 141550Z 14005KT M04/M07 A3036 RMK A01 T10401071  RH  079%=      5-min Rain = 0
KWVS 141555Z 13005KT M04/M07 A3036 RMK A01 T10381070  RH  079%=      5-min Rain = 0
KWVS 141600Z 13005KT M04/M07 A3035 RMK A01 T10381070  RH  079%=      5-min Rain = 0
KWVS 141605Z 13005KT M04/M07 A3035 RMK A01 T10381070  RH  079%=      5-min Rain = 0
KWVS 141610Z 13005KT M04/M07 A3035 RMK A01 T10371067  RH  080%=      5-min Rain = 0
KWVS 141615Z 12005KT M04/M07 A3035 RMK A01 T10361066  RH  080%=      5-min Rain = 0
KWVS 141620Z 14004KT M03/M07 A3035 RMK A01 T10341065  RH  080%=      5-min Rain = 0
KWVS 141625Z 12006KT M03/M06 A3035 RMK A01 T10331063  RH  080%=      5-min Rain = 0
KWVS 141630Z 13005KT M03/M06 A3035 RMK A01 T10321062  RH  080%=      5-min Rain = 0
KWVS 141635Z 13005KT M03/M06 A3035 RMK A01 T10291059  RH  080%=      5-min Rain = 0
KWVS 141640Z 14007KT M03/M06 A3035 RMK A01 T10291059  RH  080%=      5-min Rain = 0
KWVS 141645Z 14006KT M03/M06 A3035 RMK A01 T10291058  RH  080%=      5-min Rain = 0
KWVS 141650Z 14007KT M03/M06 A3035 RMK A01 T10281057  RH  080%=      5-min Rain = 0
KWVS 141655Z 15006KT M03/M06 A3035 RMK A01 T10261056  RH  080%=      5-min Rain = 0
KWVS 141700Z 15008KT M02/M05 A3034 RMK A01 T10241053  RH  080%=      5-min Rain = 0
KWVS 141705Z 14008KT M02/M05 A3034 RMK A01 T10231052  RH  080%=      5-min Rain = 0
KWVS 141710Z 14007KT M02/M05 A3034 RMK A01 T10221051  RH  080%=      5-min Rain = 0
KWVS 141715Z 15008KT M02/M05 A3034 RMK A01 T10211051  RH  081%=      5-min Rain = 0
KWVS 141720Z 15008KT M02/M05 A3034 RMK A01 T10211050  RH  081%=      5-min Rain = 0
KWVS 141725Z 14008KT M02/M05 A3034 RMK A01 T10211050  RH  081%=      5-min Rain = 0
KWVS 141730Z 17008KT M02/M05 A3034 RMK A01 T10201049  RH  081%=      5-min Rain = 0
KWVS 141735Z 15008KT M02/M05 A3034 RMK A01 T10181048  RH  080%=      5-min Rain = 0
KWVS 141740Z 15008KT M02/M05 A3033 RMK A01 T10171047  RH  080%=      5-min Rain = 0
KWVS 141745Z 15008KT M02/M05 A3033 RMK A01 T10161045  RH  081%=      5-min Rain = 0
KWVS 141750Z 17007G12KT M02/M04 A3033 RMK A01 T10151044  RH  081%=      5-min Rain = 0
KWVS 141755Z 16007KT M01/M04 A3033 RMK A01 T10131044  RH  080%=      5-min Rain = 0
KWVS 141800Z 16009KT M01/M04 A3032 RMK A01 T10121042  RH  081%=      5-min Rain = 0
KWVS 141805Z 17009KT M01/M04 A3032 RMK A01 T10111040  RH  081%=      5-min Rain = 0
KWVS 141810Z 17009KT M01/M04 A3032 RMK A01 T10111040  RH  081%=      5-min Rain = 0
KWVS 141815Z 17009KT M01/M04 A3031 RMK A01 T10111041  RH  081%=      5-min Rain = 0
KWVS 141820Z 16008KT M01/M04 A3031 RMK A01 T10101039  RH  081%=      5-min Rain = 0
KWVS 141825Z 16008KT M01/M04 A3031 RMK A01 T10081039  RH  080%=      5-min Rain = 0
KWVS 141830Z 15007KT M01/M04 A3031 RMK A01 T10091040  RH  080%=      5-min Rain = 0
KWVS 141835Z 16010KT M01/M04 A303 RMK A01 T10091039  RH  080%=      5-min Rain = 0
KWVS 141840Z 15009KT M01/M04 A303 RMK A01 T10071037  RH  081%=      5-min Rain = 0
KWVS 141845Z 15008KT M01/M04 A303 RMK A01 T10051036  RH  080%=      5-min Rain = 0
KWVS 141850Z 17010KT M01/M04 A303 RMK A01 T10051036  RH  080%=      5-min Rain = 0
KWVS 141855Z 18009KT M00/M03 A303 RMK A01 T10031034  RH  080%=      5-min Rain = 0
KWVS 141900Z 16010KT M00/M04 A3029 RMK A01 T10041036  RH  080%=      5-min Rain = 0
KWVS 141905Z 16010KT M00/M04 A3029 RMK A01 T10031035  RH  079%=      5-min Rain = 0
KWVS 141910Z 16010KT M00/M04 A3029 RMK A01 T10021035  RH  079%=      5-min Rain = 0
KWVS 141915Z 18010KT 00/04 A3029 RMK A01 T00-00-35  RH  078%=      5-min Rain = 0
KWVS 141920Z 16011KT 00/M03 A3029 RMK A01 T00011034  RH  078%=      5-min Rain = 0
KWVS 141925Z 17009KT 00/M03 A3028 RMK A01 T00011034  RH  078%=      5-min Rain = 0
KWVS 141930Z 17009KT 00/M03 A3028 RMK A01 T00031033  RH  077%=      5-min Rain = 0
KWVS 141935Z 17009KT 00/M03 A3028 RMK A01 T00031033  RH  077%=      5-min Rain = 0
KWVS 141940Z 18009KT 01/M03 A3028 RMK A01 T00051031  RH  077%=      5-min Rain = 0
KWVS 141945Z 17009KT 01/M03 A3027 RMK A01 T00081030  RH  076%=      5-min Rain = 0
KWVS 141950Z 18008G14KT 01/M03 A3026 RMK A01 T00121027  RH  076%=      5-min Rain = 0
KWVS 141955Z 16009KT 01/M03 A3026 RMK A01 T00101030  RH  075%=      5-min Rain = 0
KWVS 142000Z 16011KT 01/M03 A3025 RMK A01 T00111029  RH  075%=      5-min Rain = 0
KWVS 142005Z 17011KT 01/M03 A3025 RMK A01 T00121029  RH  075%=      5-min Rain = 0
KWVS 142010Z 19011G17KT 01/M03 A3025 RMK A01 T00141027  RH  075%=      5-min Rain = 0
KWVS 142015Z 19012KT 01/M03 A3025 RMK A01 T00131028  RH  075%=      5-min Rain = 0
KWVS 142020Z 18012KT 02/M03 A3025 RMK A01 T00151026  RH  074%=      5-min Rain = 0
KWVS 142025Z 18011G16KT 02/M03 A3025 RMK A01 T00171026  RH  074%=      5-min Rain = 0
KWVS 142030Z 18011KT 02/M03 A3024 RMK A01 T00161026  RH  074%=      5-min Rain = 0
KWVS 142035Z 17010G15KT 02/M03 A3024 RMK A01 T00181025  RH  074%=      5-min Rain = 0
KWVS 142040Z 18009KT 02/M03 A3023 RMK A01 T00181025  RH  074%=      5-min Rain = 0
KWVS 142045Z 19009KT 02/M02 A3023 RMK A01 T00201023  RH  074%=      5-min Rain = 0
KWVS 142050Z 19009KT 02/M02 A3023 RMK A01 T00211022  RH  074%=      5-min Rain = 0
KWVS 142055Z 20010KT 02/M02 A3023 RMK A01 T00201023  RH  074%=      5-min Rain = 0
KWVS 142100Z 18011KT 02/M02 A3023 RMK A01 T00191022  RH  075%=      5-min Rain = 0
KWVS 142105Z 18011KT 02/M02 A3022 RMK A01 T00191021  RH  075%=      5-min Rain = 0
KWVS 142110Z 19013KT 02/M02 A3022 RMK A01 T00211021  RH  075%=      5-min Rain = 0
KWVS 142115Z 18011G16KT 02/M02 A3022 RMK A01 T00181021  RH  076%=      5-min Rain = 0
KWVS 142120Z 18013KT 02/M02 A3022 RMK A01 T00181021  RH  076%=      5-min Rain = 0
KWVS 142125Z 19012KT 02/M02 A3022 RMK A01 T00181021  RH  076%=      5-min Rain = 0
KWVS 142130Z 18012KT 02/M02 A3022 RMK A01 T00181021  RH  076%=      5-min Rain = 0
KWVS 142135Z 19010KT 02/M02 A3022 RMK A01 T00191019  RH  076%=      5-min Rain = 0
KWVS 142140Z 18009G15KT 02/M02 A3022 RMK A01 T00231017  RH  076%=      5-min Rain = 0
KWVS 142145Z 18011KT 02/M02 A3021 RMK A01 T00231017  RH  075%=      5-min Rain = 0
KWVS 142150Z 19012KT 02/M02 A3021 RMK A01 T00241016  RH  075%=      5-min Rain = 0
KWVS 142155Z 19012KT 03/M02 A3021 RMK A01 T00251016  RH  075%=      5-min Rain = 0
KWVS 142200Z 19011KT 03/M01 A3021 RMK A01 T00291014  RH  074%=      5-min Rain = 0
KWVS 142205Z 19012KT 03/M02 A302 RMK A01 T00271016  RH  074%=      5-min Rain = 0
KWVS 142210Z 18012KT 03/M02 A3021 RMK A01 T00271015  RH  075%=      5-min Rain = 0
KWVS 142215Z 19012KT 03/M01 A3021 RMK A01 T00281014  RH  074%=      5-min Rain = 0
KWVS 142220Z 19013KT 03/M01 A302 RMK A01 T00271014  RH  075%=      5-min Rain = 0
KWVS 142225Z 20013G18KT 03/M01 A302 RMK A01 T00311013  RH  074%=      5-min Rain = 0
KWVS 142230Z 20013KT 03/M01 A302 RMK A01 T00311014  RH  073%=      5-min Rain = 0
KWVS 142235Z 20012G17KT 03/M01 A3019 RMK A01 T00291013  RH  074%=      5-min Rain = 0
KWVS 142240Z 20011KT 03/M01 A3019 RMK A01 T00331011  RH  074%=      5-min Rain = 0
KWVS 142245Z 20011KT 04/M01 A3019 RMK A01 T00351010  RH  073%=      5-min Rain = 0
KWVS 142250Z 20013KT 03/M01 A3019 RMK A01 T00311012  RH  074%=      5-min Rain = 0
KWVS 142255Z 20013KT 03/M01 A3019 RMK A01 T00321011  RH  074%=      5-min Rain = 0
KWVS 142300Z 20013KT 03/M01 A3019 RMK A01 T00341010  RH  074%=      5-min Rain = 0
KWVS 142305Z 20013KT 03/M01 A3019 RMK A01 T00341010  RH  074%=      5-min Rain = 0
KWVS 142310Z 19012KT 03/M01 A3018 RMK A01 T00341009  RH  074%=      5-min Rain = 0
KWVS 142315Z 19012KT 04/M01 A3018 RMK A01 T00361008  RH  074%=      5-min Rain = 0
KWVS 142320Z 19011KT 04/M01 A3018 RMK A01 T00351008  RH  074%=      5-min Rain = 0
KWVS 142325Z 19010KT 04/M01 A3018 RMK A01 T00371007  RH  074%=      5-min Rain = 0
KWVS 142330Z 19012KT 04/M01 A3017 RMK A01 T00351008  RH  074%=      5-min Rain = 0
KWVS 142335Z 20011KT 04/M01 A3017 RMK A01 T00351007  RH  075%=      5-min Rain = 0
KWVS 142340Z 20010KT 03/M01 A3018 RMK A01 T00341007  RH  075%=      5-min Rain = 0
KWVS 142345Z 20009KT 03/M01 A3017 RMK A01 T00341007  RH  075%=      5-min Rain = 0
KWVS 142350Z 20010KT 03/M01 A3017 RMK A01 T00341007  RH  075%=      5-min Rain = 0
KWVS 142355Z 20008KT 03/M01 A3017 RMK A01 T00331007  RH  076%=      5-min Rain = 0
KWVS 150000Z 21008KT 03/M01 A3017 RMK A01 T00311008  RH  076%=      5-min Rain = 0
KWVS 150005Z 21008KT 03/M01 A3017 RMK A01 T00291008  RH  077%=      5-min Rain = 0
KWVS 150010Z 21007KT 03/M01 A3017 RMK A01 T00281008  RH  078%=      5-min Rain = 0
KWVS 150015Z 22006KT 03/M01 A3017 RMK A01 T00261009  RH  078%=      5-min Rain = 0
KWVS 150020Z 21005KT 02/M01 A3017 RMK A01 T00241010  RH  079%=      5-min Rain = 0
KWVS 150025Z 22005KT 02/M01 A3017 RMK A01 T00221011  RH  080%=      5-min Rain = 0
KWVS 150030Z 22004KT 02/M01 A3017 RMK A01 T00191012  RH  081%=      5-min Rain = 0
KWVS 150035Z 22003KT 02/M01 A3017 RMK A01 T00181011  RH  082%=      5-min Rain = 0
KWVS 150040Z 22003KT 02/M01 A3017 RMK A01 T00181011  RH  082%=      5-min Rain = 0
KWVS 150045Z 22003KT 02/M01 A3017 RMK A01 T00191010  RH  082%=      5-min Rain = 0
KWVS 150050Z 23005KT 02/M01 A3017 RMK A01 T00191010  RH  082%=      5-min Rain = 0
KWVS 150055Z 23005KT 02/M01 A3016 RMK A01 T00171012  RH  082%=      5-min Rain = 0
KWVS 150100Z 24004KT 02/M01 A3016 RMK A01 T00151012  RH  083%=      5-min Rain = 0
KWVS 150105Z 23002KT 02/M01 A3016 RMK A01 T00151011  RH  084%=      5-min Rain = 0
KWVS 150110Z 23002KT 02/M01 A3016 RMK A01 T00151011  RH  084%=      5-min Rain = 0
KWVS 150115Z 23004KT 02/M01 A3016 RMK A01 T00161010  RH  084%=      5-min Rain = 0
KWVS 150120Z 22004KT 02/M01 A3016 RMK A01 T00151011  RH  084%=      5-min Rain = 0
KWVS 150125Z 23003KT 02/M01 A3016 RMK A01 T00151011  RH  084%=      5-min Rain = 0
KWVS 150130Z 23003KT 02/M01 A3016 RMK A01 T00161009  RH  084%=      5-min Rain = 0
KWVS 150135Z 23003KT 02/M01 A3016 RMK A01 T00171009  RH  084%=      5-min Rain = 0
KWVS 150140Z 23004KT 02/M01 A3016 RMK A01 T00181008  RH  084%=      5-min Rain = 0
KWVS 150145Z 23002KT 02/M01 A3016 RMK A01 T00181008  RH  083%=      5-min Rain = 0
KWVS 150150Z 23002KT 02/M01 A3016 RMK A01 T00181008  RH  084%=      5-min Rain = 0
KWVS 150155Z 23002KT 02/M01 A3016 RMK A01 T00191007  RH  084%=      5-min Rain = 0
KWVS 150200Z 22001KT 02/M01 A3016 RMK A01 T00191007  RH  084%=      5-min Rain = 0
KWVS 150205Z 23001KT 02/M01 A3016 RMK A01 T00181007  RH  084%=      5-min Rain = 0
KWVS 150210Z 23002KT 02/M01 A3016 RMK A01 T00191006  RH  084%=      5-min Rain = 0
KWVS 150215Z 23002KT 02/M01 A3016 RMK A01 T00181007  RH  084%=      5-min Rain = 0
KWVS 150220Z 20000KT 02/M01 A3016 RMK A01 T00171008  RH  084%=      5-min Rain = 0
KWVS 150225Z 00000KT 02/M01 A3016 RMK A01 T00171007  RH  085%=      5-min Rain = 0
KWVS 150230Z 00000KT 02/M01 A3016 RMK A01 T00181006  RH  085%=      5-min Rain = 0
KWVS 150235Z 00000KT 02/M01 A3016 RMK A01 T00191006  RH  085%=      5-min Rain = 0
KWVS 150240Z 20000KT 02/M01 A3016 RMK A01 T00181007  RH  084%=      5-min Rain = 0
KWVS 150245Z 20000KT 02/M01 A3015 RMK A01 T00161008  RH  085%=      5-min Rain = 0
KWVS 150250Z 20000KT 02/M01 A3015 RMK A01 T00161007  RH  086%=      5-min Rain = 0
KWVS 150255Z 20001KT 02/M01 A3015 RMK A01 T00171006  RH  086%=      5-min Rain = 0
KWVS 150300Z 20001KT 02/M01 A3015 RMK A01 T00181005  RH  085%=      5-min Rain = 0
KWVS 150305Z 24002KT 02/M01 A3016 RMK A01 T00181006  RH  085%=      5-min Rain = 0
KWVS 150310Z 21002KT 02/M01 A3016 RMK A01 T00151010  RH  085%=      5-min Rain = 0
KWVS 150315Z 19001KT 01/M01 A3015 RMK A01 T00101014  RH  085%=      5-min Rain = 0
KWVS 150320Z 26001KT 01/M02 A3016 RMK A01 T00051018  RH  086%=      5-min Rain = 0
KWVS 150325Z 31002KT M00/M02 A3016 RMK A01 T10011021  RH  087%=      5-min Rain = 0
KWVS 150330Z 29002KT 00/02 A3016 RMK A01 T00000-17  RH  089%=      5-min Rain = 0
KWVS 150335Z 24002KT 01/M01 A3016 RMK A01 T00071009  RH  090%=      5-min Rain = 0
KWVS 150340Z 22002KT 01/M01 A3016 RMK A01 T00131005  RH  089%=      5-min Rain = 0
KWVS 150345Z 22003KT 02/M00 A3016 RMK A01 T00181002  RH  087%=      5-min Rain = 0
KWVS 150350Z 23003KT 02/M00 A3016 RMK A01 T00201003  RH  085%=      5-min Rain = 0
KWVS 150355Z 22003KT 02/M01 A3016 RMK A01 T00201005  RH  084%=      5-min Rain = 0
KWVS 150400Z 21003KT 02/M01 A3016 RMK A01 T00201005  RH  085%=      5-min Rain = 0
KWVS 150405Z 20004KT 02/M00 A3015 RMK A01 T00201004  RH  085%=      5-min Rain = 0
KWVS 150410Z 19004KT 02/M00 A3016 RMK A01 T00221003  RH  084%=      5-min Rain = 0
KWVS 150415Z 19003KT 02/M00 A3016 RMK A01 T00221004  RH  084%=      5-min Rain = 0
KWVS 150420Z 20003KT 02/M00 A3015 RMK A01 T00211004  RH  084%=      5-min Rain = 0
KWVS 150425Z 20003KT 02/M00 A3015 RMK A01 T00221004  RH  084%=      5-min Rain = 0
KWVS 150430Z 20003KT 02/M00 A3015 RMK A01 T00221004  RH  084%=      5-min Rain = 0
KWVS 150435Z 19004KT 02/M00 A3015 RMK A01 T00211004  RH  084%=      5-min Rain = 0
KWVS 150440Z 19004KT 02/M01 A3015 RMK A01 T00201005  RH  084%=      5-min Rain = 0
KWVS 150445Z 20004KT 02/M01 A3015 RMK A01 T00181006  RH  085%=      5-min Rain = 0
KWVS 150450Z 19005KT 02/M01 A3015 RMK A01 T00181006  RH  085%=      5-min Rain = 0
KWVS 150455Z 18005KT 02/M01 A3014 RMK A01 T00161006  RH  086%=      5-min Rain = 0
KWVS 150500Z 19005KT 02/M01 A3014 RMK A01 T00161007  RH  086%=      5-min Rain = 0
KWVS 150505Z 19006KT 02/M01 A3014 RMK A01 T00151007  RH  086%=      5-min Rain = 0
KWVS 150510Z 19006KT 01/M01 A3014 RMK A01 T00141007  RH  087%=      5-min Rain = 0
KWVS 150515Z 19007KT 01/M01 A3014 RMK A01 T00131008  RH  087%=      5-min Rain = 0
KWVS 150520Z 19007KT 01/M01 A3014 RMK A01 T00111010  RH  087%=      5-min Rain = 0
KWVS 150525Z 19007KT 01/M01 A3013 RMK A01 T00081010  RH  088%=      5-min Rain = 0
KWVS 150530Z 19007KT 01/M01 A3013 RMK A01 T00081010  RH  089%=      5-min Rain = 0
KWVS 150535Z 20007KT 01/M01 A3013 RMK A01 T00071010  RH  089%=      5-min Rain = 0
KWVS 150540Z 19007KT 01/M01 A3013 RMK A01 T00071009  RH  090%=      5-min Rain = 0
KWVS 150545Z 18008KT 01/M01 A3013 RMK A01 T00101007  RH  089%=      5-min Rain = 0
KWVS 150550Z 19009KT 01/M01 A3013 RMK A01 T00091009  RH  089%=      5-min Rain = 0
KWVS 150555Z 19008KT 01/M01 A3013 RMK A01 T00071010  RH  089%=      5-min Rain = 0

Page generated in 0.0379 seconds.